Skip Navigation Links Skip Navigation Links

Current Weather

West Bend Muni, West Bend, Wis.

For information only: do not use for flight planning or navigation.
Latest weather
Observation time Sunday, May 31, 2020 8:55 AM CDT
Local time Sunday, May 31, 2020 9:16 AM CDT
Flight conditions Visual Meteorological Conditions
Winds
Wind direction South (170°)
Wind speed 5 mph
Visibility 10 mi.
Sky condition
Ceiling unlimited
Sky clear
Temperature 52°F
Dewpoint 34°F
Altimeter 30.38 in.Hg
Derived measurements
Relative humidity 50%
Density altitude -13 ft.
Remarks
Fully automated report.
Automated weather observing station with precipitation discriminator.
METAR KETB 311355Z AUTO 17004KT 10SM CLR 11/01 A3038 RMK AO2

Settings

Location code

InnerDrive.Weather 4.0.6770.0 Release CLR 4.0.30319.42000
Copyright ©2018 Inner Drive Technology. All rights reserved. Portions Copyright ©1986-2018 David Braverman.

Find weather

Site navigation


Skip Navigation Links

Place info

Page info

PayPal - The safer, easier way to pay online!

Return home.

Copyright ©2020 Inner Drive Technology. Purveyors of fine, hand-crafted computer software. Page printed 2020-05-31T14:16:31 UTC.